sensor_id;sensor_type;location;lat;lon;timestamp;temperature;humidity
46730;DHT22;32476;50.002;11.854;2022-10-16T00:01:30;13.20;99.90
46730;DHT22;32476;50.002;11.854;2022-10-16T00:03:58;13.20;99.90
46730;DHT22;32476;50.002;11.854;2022-10-16T00:06:28;13.20;99.90
46730;DHT22;32476;50.002;11.854;2022-10-16T00:08:55;13.20;99.90
46730;DHT22;32476;50.002;11.854;2022-10-16T00:11:24;13.20;99.90
46730;DHT22;32476;50.002;11.854;2022-10-16T00:13:59;13.20;99.90
46730;DHT22;32476;50.002;11.854;2022-10-16T00:16:27;13.10;99.90
46730;DHT22;32476;50.002;11.854;2022-10-16T00:18:56;13.10;99.90
46730;DHT22;32476;50.002;11.854;2022-10-16T00:21:24;13.10;99.90
46730;DHT22;32476;50.002;11.854;2022-10-16T00:24:03;13.10;99.90
46730;DHT22;32476;50.002;11.854;2022-10-16T00:26:34;13.10;99.90
46730;DHT22;32476;50.002;11.854;2022-10-16T00:29:01;13.10;99.90
46730;DHT22;32476;50.002;11.854;2022-10-16T00:31:28;13.10;99.90
46730;DHT22;32476;50.002;11.854;2022-10-16T00:33:57;13.00;99.90
46730;DHT22;32476;50.002;11.854;2022-10-16T00:36:24;13.00;99.90
46730;DHT22;32476;50.002;11.854;2022-10-16T00:38:55;13.00;99.90
46730;DHT22;32476;50.002;11.854;2022-10-16T00:41:25;13.00;99.90
46730;DHT22;32476;50.002;11.854;2022-10-16T00:43:56;13.00;99.90
46730;DHT22;32476;50.002;11.854;2022-10-16T00:46:28;13.10;99.90
46730;DHT22;32476;50.002;11.854;2022-10-16T00:49:14;13.10;99.90
46730;DHT22;32476;50.002;11.854;2022-10-16T00:51:47;13.10;99.90
46730;DHT22;32476;50.002;11.854;2022-10-16T00:54:30;13.10;99.90
46730;DHT22;32476;50.002;11.854;2022-10-16T00:57:01;13.10;99.90
46730;DHT22;32476;50.002;11.854;2022-10-16T00:59:35;13.10;99.90
46730;DHT22;32476;50.002;11.854;2022-10-16T01:02:07;13.10;99.90
46730;DHT22;32476;50.002;11.854;2022-10-16T01:04:46;13.10;99.90
46730;DHT22;32476;50.002;11.854;2022-10-16T01:12:54;13.10;99.90
46730;DHT22;32476;50.002;11.854;2022-10-16T01:15:36;13.10;99.90
46730;DHT22;32476;50.002;11.854;2022-10-16T01:18:16;13.10;99.90
46730;DHT22;32476;50.002;11.854;2022-10-16T01:20:51;13.10;99.90
46730;DHT22;32476;50.002;11.854;2022-10-16T01:23:51;13.10;99.90
46730;DHT22;32476;50.002;11.854;2022-10-16T01:30:10;13.10;99.90
46730;DHT22;32476;50.002;11.854;2022-10-16T01:32:48;13.10;99.90
46730;DHT22;32476;50.002;11.854;2022-10-16T01:38:10;13.20;99.90
46730;DHT22;32476;50.002;11.854;2022-10-16T01:40:46;13.20;99.90
46730;DHT22;32476;50.002;11.854;2022-10-16T01:43:22;13.20;99.90
46730;DHT22;32476;50.002;11.854;2022-10-16T01:45:52;13.30;99.90
46730;DHT22;32476;50.002;11.854;2022-10-16T01:48:20;13.20;99.90
46730;DHT22;32476;50.002;11.854;2022-10-16T01:51:06;13.30;99.90
46730;DHT22;32476;50.002;11.854;2022-10-16T01:53:37;13.30;99.90
46730;DHT22;32476;50.002;11.854;2022-10-16T01:56:05;13.30;99.90
46730;DHT22;32476;50.002;11.854;2022-10-16T01:58:38;13.30;99.90
46730;DHT22;32476;50.002;11.854;2022-10-16T02:01:11;13.30;99.90
46730;DHT22;32476;50.002;11.854;2022-10-16T02:03:40;13.30;99.90
46730;DHT22;32476;50.002;11.854;2022-10-16T02:06:10;13.30;99.90
46730;DHT22;32476;50.002;11.854;2022-10-16T02:08:36;13.30;99.90
46730;DHT22;32476;50.002;11.854;2022-10-16T02:11:02;13.30;99.90
46730;DHT22;32476;50.002;11.854;2022-10-16T02:13:37;13.30;99.90
46730;DHT22;32476;50.002;11.854;2022-10-16T02:16:06;13.30;99.90
46730;DHT22;32476;50.002;11.854;2022-10-16T02:18:35;13.30;99.90
46730;DHT22;32476;50.002;11.854;2022-10-16T02:21:22;13.30;99.90
46730;DHT22;32476;50.002;11.854;2022-10-16T02:24:02;13.30;99.90
46730;DHT22;32476;50.002;11.854;2022-10-16T02:26:36;13.30;99.90
46730;DHT22;32476;50.002;11.854;2022-10-16T02:29:09;13.30;99.90
46730;DHT22;32476;50.002;11.854;2022-10-16T02:31:42;13.30;99.90
46730;DHT22;32476;50.002;11.854;2022-10-16T02:34:12;13.30;99.90
46730;DHT22;32476;50.002;11.854;2022-10-16T02:36:40;13.40;99.90
46730;DHT22;32476;50.002;11.854;2022-10-16T02:39:07;13.30;99.90
46730;DHT22;32476;50.002;11.854;2022-10-16T02:41:35;13.30;99.90
46730;DHT22;32476;50.002;11.854;2022-10-16T02:44:01;13.30;99.90
46730;DHT22;32476;50.002;11.854;2022-10-16T02:46:27;13.30;99.90
46730;DHT22;32476;50.002;11.854;2022-10-16T02:48:54;13.30;99.90
46730;DHT22;32476;50.002;11.854;2022-10-16T02:51:20;13.30;99.90
46730;DHT22;32476;50.002;11.854;2022-10-16T02:53:46;13.30;99.90
46730;DHT22;32476;50.002;11.854;2022-10-16T02:56:14;13.30;99.90
46730;DHT22;32476;50.002;11.854;2022-10-16T02:58:40;13.30;99.90
46730;DHT22;32476;50.002;11.854;2022-10-16T03:01:06;13.30;99.90
46730;DHT22;32476;50.002;11.854;2022-10-16T03:03:33;13.30;99.90
46730;DHT22;32476;50.002;11.854;2022-10-16T03:05:59;13.30;99.90
46730;DHT22;32476;50.002;11.854;2022-10-16T03:08:25;13.30;99.90
46730;DHT22;32476;50.002;11.854;2022-10-16T03:10:52;13.30;99.90
46730;DHT22;32476;50.002;11.854;2022-10-16T03:13:18;13.30;99.90
46730;DHT22;32476;50.002;11.854;2022-10-16T03:15:46;13.30;99.90
46730;DHT22;32476;50.002;11.854;2022-10-16T03:18:13;13.30;99.90
46730;DHT22;32476;50.002;11.854;2022-10-16T03:20:39;13.30;99.90
46730;DHT22;32476;50.002;11.854;2022-10-16T03:23:05;13.30;99.90
46730;DHT22;32476;50.002;11.854;2022-10-16T03:25:35;13.30;99.90
46730;DHT22;32476;50.002;11.854;2022-10-16T03:28:01;13.30;99.90
46730;DHT22;32476;50.002;11.854;2022-10-16T03:30:27;13.20;99.90
46730;DHT22;32476;50.002;11.854;2022-10-16T03:32:54;13.30;99.90
46730;DHT22;32476;50.002;11.854;2022-10-16T03:35:21;13.20;99.90
46730;DHT22;32476;50.002;11.854;2022-10-16T03:37:49;13.20;99.90
46730;DHT22;32476;50.002;11.854;2022-10-16T03:40:17;13.20;99.90
46730;DHT22;32476;50.002;11.854;2022-10-16T03:42:44;13.20;99.90
46730;DHT22;32476;50.002;11.854;2022-10-16T03:45:11;13.20;99.90
46730;DHT22;32476;50.002;11.854;2022-10-16T03:47:38;13.20;99.90
46730;DHT22;32476;50.002;11.854;2022-10-16T03:50:05;13.10;99.90
46730;DHT22;32476;50.002;11.854;2022-10-16T03:52:31;13.10;99.90
46730;DHT22;32476;50.002;11.854;2022-10-16T03:55:00;13.10;99.90
46730;DHT22;32476;50.002;11.854;2022-10-16T03:57:25;13.10;99.90
46730;DHT22;32476;50.002;11.854;2022-10-16T03:59:51;13.10;99.90
46730;DHT22;32476;50.002;11.854;2022-10-16T04:02:19;13.10;99.90
46730;DHT22;32476;50.002;11.854;2022-10-16T04:04:45;13.10;99.90
46730;DHT22;32476;50.002;11.854;2022-10-16T04:07:11;13.10;99.90
46730;DHT22;32476;50.002;11.854;2022-10-16T04:09:38;13.10;99.90
46730;DHT22;32476;50.002;11.854;2022-10-16T04:12:04;13.10;99.90
46730;DHT22;32476;50.002;11.854;2022-10-16T04:14:30;13.10;99.90
46730;DHT22;32476;50.002;11.854;2022-10-16T04:16:57;13.10;99.90
46730;DHT22;32476;50.002;11.854;2022-10-16T04:19:23;13.10;99.90
46730;DHT22;32476;50.002;11.854;2022-10-16T04:21:49;13.20;99.90
46730;DHT22;32476;50.002;11.854;2022-10-16T04:24:17;13.20;99.90
46730;DHT22;32476;50.002;11.854;2022-10-16T04:26:43;13.20;99.90
46730;DHT22;32476;50.002;11.854;2022-10-16T04:29:09;13.20;99.90
46730;DHT22;32476;50.002;11.854;2022-10-16T04:31:36;13.20;99.90
46730;DHT22;32476;50.002;11.854;2022-10-16T04:34:02;13.20;99.90
46730;DHT22;32476;50.002;11.854;2022-10-16T04:36:28;13.20;99.90
46730;DHT22;32476;50.002;11.854;2022-10-16T04:38:55;13.20;99.90
46730;DHT22;32476;50.002;11.854;2022-10-16T04:41:21;13.20;99.90
46730;DHT22;32476;50.002;11.854;2022-10-16T04:43:47;13.20;99.90
46730;DHT22;32476;50.002;11.854;2022-10-16T04:46:15;13.20;99.90
46730;DHT22;32476;50.002;11.854;2022-10-16T04:48:41;13.20;99.90
46730;DHT22;32476;50.002;11.854;2022-10-16T04:51:06;13.20;99.90
46730;DHT22;32476;50.002;11.854;2022-10-16T04:53:34;13.20;99.90
46730;DHT22;32476;50.002;11.854;2022-10-16T04:56:00;13.20;99.90
46730;DHT22;32476;50.002;11.854;2022-10-16T04:58:26;13.20;99.90
46730;DHT22;32476;50.002;11.854;2022-10-16T05:00:53;13.20;99.90
46730;DHT22;32476;50.002;11.854;2022-10-16T05:03:19;13.20;99.90
46730;DHT22;32476;50.002;11.854;2022-10-16T05:05:46;13.20;99.90
46730;DHT22;32476;50.002;11.854;2022-10-16T05:08:14;13.20;99.90
46730;DHT22;32476;50.002;11.854;2022-10-16T05:10:43;13.20;99.90
46730;DHT22;32476;50.002;11.854;2022-10-16T05:13:09;13.20;99.90
46730;DHT22;32476;50.002;11.854;2022-10-16T05:15:37;13.20;99.90
46730;DHT22;32476;50.002;11.854;2022-10-16T05:18:03;13.20;99.90
46730;DHT22;32476;50.002;11.854;2022-10-16T05:20:29;13.20;99.90
46730;DHT22;32476;50.002;11.854;2022-10-16T05:22:57;13.20;99.90
46730;DHT22;32476;50.002;11.854;2022-10-16T05:25:24;13.20;99.90
46730;DHT22;32476;50.002;11.854;2022-10-16T05:27:50;13.20;99.90
46730;DHT22;32476;50.002;11.854;2022-10-16T05:30:18;13.10;99.90
46730;DHT22;32476;50.002;11.854;2022-10-16T05:32:50;13.10;99.90
46730;DHT22;32476;50.002;11.854;2022-10-16T05:35:18;13.10;99.90
46730;DHT22;32476;50.002;11.854;2022-10-16T05:37:45;13.10;99.90
46730;DHT22;32476;50.002;11.854;2022-10-16T05:40:12;13.10;99.90
46730;DHT22;32476;50.002;11.854;2022-10-16T05:42:40;13.10;99.90
46730;DHT22;32476;50.002;11.854;2022-10-16T05:45:09;13.10;99.90
46730;DHT22;32476;50.002;11.854;2022-10-16T05:47:35;13.20;99.90
46730;DHT22;32476;50.002;11.854;2022-10-16T05:50:04;13.20;99.90
46730;DHT22;32476;50.002;11.854;2022-10-16T05:52:30;13.20;99.90
46730;DHT22;32476;50.002;11.854;2022-10-16T05:54:56;13.20;99.90
46730;DHT22;32476;50.002;11.854;2022-10-16T05:57:23;13.20;99.90
46730;DHT22;32476;50.002;11.854;2022-10-16T05:59:49;13.20;99.90
46730;DHT22;32476;50.002;11.854;2022-10-16T06:02:15;13.20;99.90
46730;DHT22;32476;50.002;11.854;2022-10-16T06:04:42;13.20;99.90
46730;DHT22;32476;50.002;11.854;2022-10-16T06:07:08;13.20;99.90
46730;DHT22;32476;50.002;11.854;2022-10-16T06:09:34;13.20;99.90
46730;DHT22;32476;50.002;11.854;2022-10-16T06:12:02;13.20;99.90
46730;DHT22;32476;50.002;11.854;2022-10-16T06:14:28;13.20;99.90
46730;DHT22;32476;50.002;11.854;2022-10-16T06:16:54;13.20;99.90
46730;DHT22;32476;50.002;11.854;2022-10-16T06:19:21;13.30;99.90
46730;DHT22;32476;50.002;11.854;2022-10-16T06:21:48;13.20;99.90
46730;DHT22;32476;50.002;11.854;2022-10-16T06:24:14;13.20;99.90
46730;DHT22;32476;50.002;11.854;2022-10-16T06:26:41;13.30;99.90
46730;DHT22;32476;50.002;11.854;2022-10-16T06:29:08;13.30;99.90
46730;DHT22;32476;50.002;11.854;2022-10-16T06:31:34;13.30;99.90
46730;DHT22;32476;50.002;11.854;2022-10-16T06:34:01;13.30;99.90
46730;DHT22;32476;50.002;11.854;2022-10-16T06:36:30;13.30;99.90
46730;DHT22;32476;50.002;11.854;2022-10-16T06:38:56;13.40;99.90
46730;DHT22;32476;50.002;11.854;2022-10-16T06:41:23;13.30;99.90
46730;DHT22;32476;50.002;11.854;2022-10-16T06:43:49;13.30;99.90
46730;DHT22;32476;50.002;11.854;2022-10-16T06:46:19;13.30;99.90
46730;DHT22;32476;50.002;11.854;2022-10-16T06:48:48;13.40;99.90
46730;DHT22;32476;50.002;11.854;2022-10-16T06:51:19;13.40;99.90
46730;DHT22;32476;50.002;11.854;2022-10-16T06:53:53;13.40;99.90
46730;DHT22;32476;50.002;11.854;2022-10-16T06:56:24;13.40;99.90
46730;DHT22;32476;50.002;11.854;2022-10-16T06:58:53;13.50;99.90
46730;DHT22;32476;50.002;11.854;2022-10-16T07:01:21;13.50;99.90
46730;DHT22;32476;50.002;11.854;2022-10-16T07:03:48;13.60;99.90
46730;DHT22;32476;50.002;11.854;2022-10-16T07:06:19;13.60;99.90
46730;DHT22;32476;50.002;11.854;2022-10-16T07:08:46;13.60;99.90
46730;DHT22;32476;50.002;11.854;2022-10-16T07:11:15;13.60;99.90
46730;DHT22;32476;50.002;11.854;2022-10-16T07:13:48;13.60;99.90
46730;DHT22;32476;50.002;11.854;2022-10-16T07:16:17;13.60;99.90
46730;DHT22;32476;50.002;11.854;2022-10-16T07:18:44;13.60;99.90
46730;DHT22;32476;50.002;11.854;2022-10-16T07:21:19;13.60;99.90
46730;DHT22;32476;50.002;11.854;2022-10-16T07:23:50;13.60;99.90
46730;DHT22;32476;50.002;11.854;2022-10-16T07:26:21;13.70;99.90
46730;DHT22;32476;50.002;11.854;2022-10-16T07:28:48;13.70;99.90
46730;DHT22;32476;50.002;11.854;2022-10-16T07:31:16;13.70;99.90
46730;DHT22;32476;50.002;11.854;2022-10-16T07:33:45;13.70;99.90
46730;DHT22;32476;50.002;11.854;2022-10-16T07:36:12;13.80;99.90
46730;DHT22;32476;50.002;11.854;2022-10-16T07:38:39;13.80;99.90
46730;DHT22;32476;50.002;11.854;2022-10-16T07:41:08;13.80;99.90
46730;DHT22;32476;50.002;11.854;2022-10-16T07:43:36;13.90;99.90
46730;DHT22;32476;50.002;11.854;2022-10-16T07:46:02;13.90;99.90
46730;DHT22;32476;50.002;11.854;2022-10-16T07:48:32;13.90;99.90
46730;DHT22;32476;50.002;11.854;2022-10-16T07:51:03;14.00;99.90
46730;DHT22;32476;50.002;11.854;2022-10-16T07:53:33;14.10;99.90
46730;DHT22;32476;50.002;11.854;2022-10-16T07:56:00;14.20;99.90
46730;DHT22;32476;50.002;11.854;2022-10-16T07:58:29;14.20;99.90
46730;DHT22;32476;50.002;11.854;2022-10-16T08:01:04;14.20;99.90
46730;DHT22;32476;50.002;11.854;2022-10-16T08:03:31;14.20;99.90
46730;DHT22;32476;50.002;11.854;2022-10-16T08:06:00;14.20;99.90
46730;DHT22;32476;50.002;11.854;2022-10-16T08:08:26;14.20;99.90
46730;DHT22;32476;50.002;11.854;2022-10-16T08:10:53;14.30;99.90
46730;DHT22;32476;50.002;11.854;2022-10-16T08:13:21;14.40;99.90
46730;DHT22;32476;50.002;11.854;2022-10-16T08:15:55;14.40;99.90
46730;DHT22;32476;50.002;11.854;2022-10-16T08:18:25;14.40;99.90
46730;DHT22;32476;50.002;11.854;2022-10-16T08:20:58;14.40;99.90
46730;DHT22;32476;50.002;11.854;2022-10-16T08:23:27;14.40;99.90
46730;DHT22;32476;50.002;11.854;2022-10-16T08:25:54;14.40;99.90
46730;DHT22;32476;50.002;11.854;2022-10-16T08:28:22;14.40;99.90
46730;DHT22;32476;50.002;11.854;2022-10-16T08:30:49;14.40;99.90
46730;DHT22;32476;50.002;11.854;2022-10-16T08:33:15;14.50;99.90
46730;DHT22;32476;50.002;11.854;2022-10-16T08:35:41;14.50;99.90
46730;DHT22;32476;50.002;11.854;2022-10-16T08:38:09;14.70;99.90
46730;DHT22;32476;50.002;11.854;2022-10-16T08:40:37;14.90;99.90
46730;DHT22;32476;50.002;11.854;2022-10-16T08:46:22;15.50;99.90
46730;DHT22;32476;50.002;11.854;2022-10-16T08:49:22;15.70;99.90
46730;DHT22;32476;50.002;11.854;2022-10-16T08:51:51;15.70;99.90
46730;DHT22;32476;50.002;11.854;2022-10-16T08:54:34;15.70;99.90
46730;DHT22;32476;50.002;11.854;2022-10-16T08:57:17;15.80;99.90
46730;DHT22;32476;50.002;11.854;2022-10-16T08:59:47;15.80;99.90
46730;DHT22;32476;50.002;11.854;2022-10-16T09:02:47;15.90;99.90
46730;DHT22;32476;50.002;11.854;2022-10-16T09:05:48;15.90;99.90
46730;DHT22;32476;50.002;11.854;2022-10-16T09:08:29;16.10;99.90
46730;DHT22;32476;50.002;11.854;2022-10-16T09:12:05;16.10;99.90
46730;DHT22;32476;50.002;11.854;2022-10-16T09:21:15;15.80;99.90
46730;DHT22;32476;50.002;11.854;2022-10-16T09:23:33;15.60;99.90
46730;DHT22;32476;50.002;11.854;2022-10-16T09:26:02;15.50;99.90
46730;DHT22;32476;50.002;11.854;2022-10-16T09:28:29;15.50;99.90
46730;DHT22;32476;50.002;11.854;2022-10-16T09:30:55;15.50;99.90
46730;DHT22;32476;50.002;11.854;2022-10-16T09:33:30;15.50;99.90
46730;DHT22;32476;50.002;11.854;2022-10-16T09:36:03;15.50;99.90
46730;DHT22;32476;50.002;11.854;2022-10-16T09:38:34;15.60;99.90
46730;DHT22;32476;50.002;11.854;2022-10-16T09:41:12;15.60;99.90
46730;DHT22;32476;50.002;11.854;2022-10-16T09:43:53;15.70;99.90
46730;DHT22;32476;50.002;11.854;2022-10-16T09:48:59;15.90;99.90
46730;DHT22;32476;50.002;11.854;2022-10-16T09:54:01;16.10;99.90
46730;DHT22;32476;50.002;11.854;2022-10-16T09:56:37;16.00;99.90
46730;DHT22;32476;50.002;11.854;2022-10-16T09:59:15;16.10;99.90
46730;DHT22;32476;50.002;11.854;2022-10-16T10:01:48;16.30;99.90
46730;DHT22;32476;50.002;11.854;2022-10-16T10:04:38;16.50;99.90
46730;DHT22;32476;50.002;11.854;2022-10-16T10:07:38;16.60;99.90
46730;DHT22;32476;50.002;11.854;2022-10-16T10:10:21;16.50;99.90
46730;DHT22;32476;50.002;11.854;2022-10-16T10:12:48;16.60;99.90
46730;DHT22;32476;50.002;11.854;2022-10-16T10:15:15;16.60;99.90
46730;DHT22;32476;50.002;11.854;2022-10-16T10:17:53;16.60;99.90
46730;DHT22;32476;50.002;11.854;2022-10-16T10:22:55;16.50;99.90
46730;DHT22;32476;50.002;11.854;2022-10-16T10:28:28;16.50;99.90
46730;DHT22;32476;50.002;11.854;2022-10-16T10:43:55;16.30;99.90
46730;DHT22;32476;50.002;11.854;2022-10-16T10:46:05;16.40;99.90
46730;DHT22;32476;50.002;11.854;2022-10-16T10:54:36;16.30;99.90
46730;DHT22;32476;50.002;11.854;2022-10-16T10:57:33;16.40;99.90
46730;DHT22;32476;50.002;11.854;2022-10-16T11:00:21;16.50;99.90
46730;DHT22;32476;50.002;11.854;2022-10-16T11:06:18;16.90;99.90
46730;DHT22;32476;50.002;11.854;2022-10-16T11:09:20;17.20;99.90
46730;DHT22;32476;50.002;11.854;2022-10-16T11:12:25;17.20;99.90
46730;DHT22;32476;50.002;11.854;2022-10-16T11:17:46;17.20;99.90
46730;DHT22;32476;50.002;11.854;2022-10-16T11:20:29;17.20;99.90
46730;DHT22;32476;50.002;11.854;2022-10-16T11:23:09;17.20;99.90
46730;DHT22;32476;50.002;11.854;2022-10-16T11:25:41;17.20;99.90
46730;DHT22;32476;50.002;11.854;2022-10-16T11:28:35;17.30;99.90
46730;DHT22;32476;50.002;11.854;2022-10-16T11:31:10;17.40;99.90
46730;DHT22;32476;50.002;11.854;2022-10-16T11:34:01;17.30;99.90
46730;DHT22;32476;50.002;11.854;2022-10-16T11:36:39;17.30;99.90
46730;DHT22;32476;50.002;11.854;2022-10-16T11:39:24;17.30;99.90
46730;DHT22;32476;50.002;11.854;2022-10-16T11:42:09;17.30;99.90
46730;DHT22;32476;50.002;11.854;2022-10-16T11:44:58;17.40;99.90
46730;DHT22;32476;50.002;11.854;2022-10-16T11:47:48;17.50;99.90
46730;DHT22;32476;50.002;11.854;2022-10-16T11:50:45;17.70;99.90
46730;DHT22;32476;50.002;11.854;2022-10-16T11:53:22;17.70;99.90
46730;DHT22;32476;50.002;11.854;2022-10-16T11:55:59;17.90;99.90
46730;DHT22;32476;50.002;11.854;2022-10-16T11:58:55;18.20;99.90
46730;DHT22;32476;50.002;11.854;2022-10-16T12:07:05;18.10;99.90
46730;DHT22;32476;50.002;11.854;2022-10-16T12:09:37;18.10;99.90
46730;DHT22;32476;50.002;11.854;2022-10-16T12:12:26;18.20;99.90
46730;DHT22;32476;50.002;11.854;2022-10-16T12:17:55;18.20;99.90
46730;DHT22;32476;50.002;11.854;2022-10-16T12:20:32;18.20;99.90
46730;DHT22;32476;50.002;11.854;2022-10-16T12:23:05;18.30;99.90
46730;DHT22;32476;50.002;11.854;2022-10-16T12:25:35;18.40;99.90
46730;DHT22;32476;50.002;11.854;2022-10-16T12:28:42;19.00;99.90
46730;DHT22;32476;50.002;11.854;2022-10-16T12:31:12;19.10;99.90
46730;DHT22;32476;50.002;11.854;2022-10-16T12:36:34;19.20;99.90
46730;DHT22;32476;50.002;11.854;2022-10-16T12:39:02;19.10;99.90
46730;DHT22;32476;50.002;11.854;2022-10-16T12:43:57;19.10;99.90
46730;DHT22;32476;50.002;11.854;2022-10-16T12:51:39;19.50;99.90
46730;DHT22;32476;50.002;11.854;2022-10-16T12:54:16;19.30;99.90
46730;DHT22;32476;50.002;11.854;2022-10-16T13:12:00;18.00;99.90
46730;DHT22;32476;50.002;11.854;2022-10-16T13:17:36;17.50;99.90
46730;DHT22;32476;50.002;11.854;2022-10-16T13:20:45;17.20;99.90
46730;DHT22;32476;50.002;11.854;2022-10-16T13:23:21;17.10;99.90
46730;DHT22;32476;50.002;11.854;2022-10-16T13:28:46;17.60;99.90
46730;DHT22;32476;50.002;11.854;2022-10-16T13:31:24;17.80;99.90
46730;DHT22;32476;50.002;11.854;2022-10-16T13:33:53;18.10;99.90
46730;DHT22;32476;50.002;11.854;2022-10-16T13:36:43;18.40;99.90
46730;DHT22;32476;50.002;11.854;2022-10-16T13:39:29;18.50;99.90
46730;DHT22;32476;50.002;11.854;2022-10-16T13:44:52;18.40;99.90
46730;DHT22;32476;50.002;11.854;2022-10-16T13:47:22;18.40;99.90
46730;DHT22;32476;50.002;11.854;2022-10-16T13:50:09;18.50;99.90
46730;DHT22;32476;50.002;11.854;2022-10-16T13:52:40;18.40;99.90
46730;DHT22;32476;50.002;11.854;2022-10-16T13:55:18;18.10;99.90
46730;DHT22;32476;50.002;11.854;2022-10-16T13:57:45;18.40;99.90
46730;DHT22;32476;50.002;11.854;2022-10-16T14:00:19;18.40;99.90
46730;DHT22;32476;50.002;11.854;2022-10-16T14:02:55;18.40;99.90
46730;DHT22;32476;50.002;11.854;2022-10-16T14:05:24;18.40;99.90
46730;DHT22;32476;50.002;11.854;2022-10-16T14:07:52;18.40;99.90
46730;DHT22;32476;50.002;11.854;2022-10-16T14:10:27;18.30;99.90
46730;DHT22;32476;50.002;11.854;2022-10-16T14:12:59;18.20;99.90
46730;DHT22;32476;50.002;11.854;2022-10-16T14:15:27;18.20;99.90
46730;DHT22;32476;50.002;11.854;2022-10-16T14:17:57;18.10;99.90
46730;DHT22;32476;50.002;11.854;2022-10-16T14:20:29;18.20;99.90
46730;DHT22;32476;50.002;11.854;2022-10-16T14:23:04;18.40;99.90
46730;DHT22;32476;50.002;11.854;2022-10-16T14:25:42;18.10;99.90
46730;DHT22;32476;50.002;11.854;2022-10-16T14:28:21;18.20;99.90
46730;DHT22;32476;50.002;11.854;2022-10-16T14:30:56;18.20;99.90
46730;DHT22;32476;50.002;11.854;2022-10-16T14:36:11;18.30;99.90
46730;DHT22;32476;50.002;11.854;2022-10-16T14:38:47;18.40;99.90
46730;DHT22;32476;50.002;11.854;2022-10-16T14:41:15;18.40;99.90
46730;DHT22;32476;50.002;11.854;2022-10-16T14:43:43;18.30;99.90
46730;DHT22;32476;50.002;11.854;2022-10-16T14:46:15;18.40;99.90
46730;DHT22;32476;50.002;11.854;2022-10-16T14:48:48;18.50;99.90
46730;DHT22;32476;50.002;11.854;2022-10-16T14:51:16;18.40;99.90
46730;DHT22;32476;50.002;11.854;2022-10-16T14:53:45;18.30;99.90
46730;DHT22;32476;50.002;11.854;2022-10-16T14:56:23;18.30;99.90
46730;DHT22;32476;50.002;11.854;2022-10-16T14:58:52;18.40;99.90
46730;DHT22;32476;50.002;11.854;2022-10-16T15:01:19;18.50;99.90
46730;DHT22;32476;50.002;11.854;2022-10-16T15:03:45;18.30;99.90
46730;DHT22;32476;50.002;11.854;2022-10-16T15:06:16;18.30;99.90
46730;DHT22;32476;50.002;11.854;2022-10-16T15:08:42;18.40;99.90
46730;DHT22;32476;50.002;11.854;2022-10-16T15:11:26;18.40;99.90
46730;DHT22;32476;50.002;11.854;2022-10-16T15:13:54;18.50;99.90
46730;DHT22;32476;50.002;11.854;2022-10-16T15:16:20;18.50;99.90
46730;DHT22;32476;50.002;11.854;2022-10-16T15:18:46;18.50;99.90
46730;DHT22;32476;50.002;11.854;2022-10-16T15:21:23;18.30;99.90
46730;DHT22;32476;50.002;11.854;2022-10-16T15:23:51;18.20;99.90
46730;DHT22;32476;50.002;11.854;2022-10-16T15:26:19;18.10;99.90
46730;DHT22;32476;50.002;11.854;2022-10-16T15:28:45;18.00;99.90
46730;DHT22;32476;50.002;11.854;2022-10-16T15:31:11;17.80;99.90
46730;DHT22;32476;50.002;11.854;2022-10-16T15:33:38;17.60;99.90
46730;DHT22;32476;50.002;11.854;2022-10-16T15:36:04;17.60;99.90
46730;DHT22;32476;50.002;11.854;2022-10-16T15:38:30;17.30;99.90
46730;DHT22;32476;50.002;11.854;2022-10-16T15:40:58;17.10;99.90
46730;DHT22;32476;50.002;11.854;2022-10-16T15:43:24;17.00;99.90
46730;DHT22;32476;50.002;11.854;2022-10-16T15:46:08;16.90;99.90
46730;DHT22;32476;50.002;11.854;2022-10-16T15:48:38;16.90;99.90
46730;DHT22;32476;50.002;11.854;2022-10-16T15:51:06;16.70;99.90
46730;DHT22;32476;50.002;11.854;2022-10-16T15:53:32;16.60;99.90
46730;DHT22;32476;50.002;11.854;2022-10-16T15:56:05;16.40;99.90
46730;DHT22;32476;50.002;11.854;2022-10-16T15:58:32;16.30;99.90
46730;DHT22;32476;50.002;11.854;2022-10-16T16:00:59;16.20;99.90
46730;DHT22;32476;50.002;11.854;2022-10-16T16:03:29;16.10;99.90
46730;DHT22;32476;50.002;11.854;2022-10-16T16:05:56;15.90;99.90
46730;DHT22;32476;50.002;11.854;2022-10-16T16:08:22;15.70;99.90
46730;DHT22;32476;50.002;11.854;2022-10-16T16:11:00;15.70;99.90
46730;DHT22;32476;50.002;11.854;2022-10-16T16:13:36;15.70;99.90
46730;DHT22;32476;50.002;11.854;2022-10-16T16:16:07;15.60;99.90
46730;DHT22;32476;50.002;11.854;2022-10-16T16:18:34;15.50;99.90
46730;DHT22;32476;50.002;11.854;2022-10-16T16:21:00;15.50;99.90
46730;DHT22;32476;50.002;11.854;2022-10-16T16:23:28;15.40;99.90
46730;DHT22;32476;50.002;11.854;2022-10-16T16:26:14;15.30;99.90
46730;DHT22;32476;50.002;11.854;2022-10-16T16:28:51;15.20;99.90
46730;DHT22;32476;50.002;11.854;2022-10-16T16:31:17;15.10;99.90
46730;DHT22;32476;50.002;11.854;2022-10-16T16:33:43;15.00;99.90
46730;DHT22;32476;50.002;11.854;2022-10-16T16:36:11;15.00;99.90
46730;DHT22;32476;50.002;11.854;2022-10-16T16:38:37;14.90;99.90
46730;DHT22;32476;50.002;11.854;2022-10-16T16:41:13;14.90;99.90
46730;DHT22;32476;50.002;11.854;2022-10-16T16:43:48;14.80;99.90
46730;DHT22;32476;50.002;11.854;2022-10-16T16:46:14;14.80;99.90
46730;DHT22;32476;50.002;11.854;2022-10-16T16:48:41;14.80;99.90
46730;DHT22;32476;50.002;11.854;2022-10-16T16:51:14;14.80;99.90
46730;DHT22;32476;50.002;11.854;2022-10-16T16:53:47;14.70;99.90
46730;DHT22;32476;50.002;11.854;2022-10-16T16:56:16;14.60;99.90
46730;DHT22;32476;50.002;11.854;2022-10-16T16:58:45;14.60;99.90
46730;DHT22;32476;50.002;11.854;2022-10-16T17:01:12;14.50;99.90
46730;DHT22;32476;50.002;11.854;2022-10-16T17:03:42;14.50;99.90
46730;DHT22;32476;50.002;11.854;2022-10-16T17:06:13;14.50;99.90
46730;DHT22;32476;50.002;11.854;2022-10-16T17:08:44;14.40;99.90
46730;DHT22;32476;50.002;11.854;2022-10-16T17:11:15;14.40;99.90
46730;DHT22;32476;50.002;11.854;2022-10-16T17:13:44;14.30;99.90
46730;DHT22;32476;50.002;11.854;2022-10-16T17:16:10;14.30;99.90
46730;DHT22;32476;50.002;11.854;2022-10-16T17:18:36;14.30;99.90
46730;DHT22;32476;50.002;11.854;2022-10-16T17:21:07;14.30;99.90
46730;DHT22;32476;50.002;11.854;2022-10-16T17:23:35;14.30;99.90
46730;DHT22;32476;50.002;11.854;2022-10-16T17:26:10;14.30;99.90